sensor_id;sensor_type;location;lat;lon;timestamp;temperature;humidity
29577;DHT22;16509;53.862;10.672;2022-11-18T00:00:44;2.40;99.90
29577;DHT22;16509;53.862;10.672;2022-11-18T00:03:10;3.30;99.90
29577;DHT22;16509;53.862;10.672;2022-11-18T00:05:35;4.30;99.90
29577;DHT22;16509;53.862;10.672;2022-11-18T00:08:01;3.10;99.90
29577;DHT22;16509;53.862;10.672;2022-11-18T00:10:26;4.40;99.90
29577;DHT22;16509;53.862;10.672;2022-11-18T00:12:56;2.00;99.90
29577;DHT22;16509;53.862;10.672;2022-11-18T00:15:40;3.20;99.90
29577;DHT22;16509;53.862;10.672;2022-11-18T00:18:05;2.80;99.90
29577;DHT22;16509;53.862;10.672;2022-11-18T00:20:32;2.40;99.90
29577;DHT22;16509;53.862;10.672;2022-11-18T00:22:58;2.90;99.90
29577;DHT22;16509;53.862;10.672;2022-11-18T00:25:24;2.40;99.90
29577;DHT22;16509;53.862;10.672;2022-11-18T00:27:50;4.10;99.90
29577;DHT22;16509;53.862;10.672;2022-11-18T00:30:16;2.20;99.90
29577;DHT22;16509;53.862;10.672;2022-11-18T00:32:42;2.60;99.90
29577;DHT22;16509;53.862;10.672;2022-11-18T00:35:07;2.50;99.90
29577;DHT22;16509;53.862;10.672;2022-11-18T00:37:33;2.40;99.90
29577;DHT22;16509;53.862;10.672;2022-11-18T00:39:59;2.00;99.90
29577;DHT22;16509;53.862;10.672;2022-11-18T00:42:24;2.10;99.90
29577;DHT22;16509;53.862;10.672;2022-11-18T00:45:09;2.00;99.90
29577;DHT22;16509;53.862;10.672;2022-11-18T00:47:34;2.30;99.90
29577;DHT22;16509;53.862;10.672;2022-11-18T00:50:00;2.50;99.90
29577;DHT22;16509;53.862;10.672;2022-11-18T00:52:25;2.30;99.90
29577;DHT22;16509;53.862;10.672;2022-11-18T00:54:51;2.10;99.90
29577;DHT22;16509;53.862;10.672;2022-11-18T00:57:19;2.50;99.90
29577;DHT22;16509;53.862;10.672;2022-11-18T00:59:44;2.30;99.90
29577;DHT22;16509;53.862;10.672;2022-11-18T01:02:10;2.20;99.90
29577;DHT22;16509;53.862;10.672;2022-11-18T01:04:38;3.00;99.90
29577;DHT22;16509;53.862;10.672;2022-11-18T01:07:04;2.50;99.90
29577;DHT22;16509;53.862;10.672;2022-11-18T01:09:30;2.10;99.90
29577;DHT22;16509;53.862;10.672;2022-11-18T01:11:55;1.90;99.90
29577;DHT22;16509;53.862;10.672;2022-11-18T01:14:39;2.00;99.90
29577;DHT22;16509;53.862;10.672;2022-11-18T01:17:07;2.40;99.90
29577;DHT22;16509;53.862;10.672;2022-11-18T01:19:33;2.20;99.90
29577;DHT22;16509;53.862;10.672;2022-11-18T01:21:59;2.30;99.90
29577;DHT22;16509;53.862;10.672;2022-11-18T01:24:28;2.40;99.90
29577;DHT22;16509;53.862;10.672;2022-11-18T01:26:54;2.10;99.90
29577;DHT22;16509;53.862;10.672;2022-11-18T01:29:19;2.10;99.90
29577;DHT22;16509;53.862;10.672;2022-11-18T01:31:45;2.00;99.90
29577;DHT22;16509;53.862;10.672;2022-11-18T01:34:11;3.30;99.90
29577;DHT22;16509;53.862;10.672;2022-11-18T01:36:36;1.80;99.90
29577;DHT22;16509;53.862;10.672;2022-11-18T01:39:02;3.50;99.90
29577;DHT22;16509;53.862;10.672;2022-11-18T01:41:28;1.80;99.90
29577;DHT22;16509;53.862;10.672;2022-11-18T01:46:23;2.10;99.90
29577;DHT22;16509;53.862;10.672;2022-11-18T01:48:53;1.90;99.90
29577;DHT22;16509;53.862;10.672;2022-11-18T01:51:24;3.60;99.90
29577;DHT22;16509;53.862;10.672;2022-11-18T01:53:57;2.10;99.90
29577;DHT22;16509;53.862;10.672;2022-11-18T01:56:30;2.30;99.90
29577;DHT22;16509;53.862;10.672;2022-11-18T01:59:02;2.50;99.90
29577;DHT22;16509;53.862;10.672;2022-11-18T02:01:31;1.90;99.90
29577;DHT22;16509;53.862;10.672;2022-11-18T02:03:57;1.80;99.90
29577;DHT22;16509;53.862;10.672;2022-11-18T02:06:23;1.70;99.90
29577;DHT22;16509;53.862;10.672;2022-11-18T02:08:49;1.90;99.90
29577;DHT22;16509;53.862;10.672;2022-11-18T02:11:15;1.80;99.90
29577;DHT22;16509;53.862;10.672;2022-11-18T02:14:01;3.40;99.90
29577;DHT22;16509;53.862;10.672;2022-11-18T02:29:59;2.00;99.90
29577;DHT22;16509;53.862;10.672;2022-11-18T02:35:28;2.00;99.90
29577;DHT22;16509;53.862;10.672;2022-11-18T02:40:35;2.30;99.90
29577;DHT22;16509;53.862;10.672;2022-11-18T02:43:23;1.20;99.90
29577;DHT22;16509;53.862;10.672;2022-11-18T02:45:54;1.90;99.90
29577;DHT22;16509;53.862;10.672;2022-11-18T02:48:22;2.10;99.90
29577;DHT22;16509;53.862;10.672;2022-11-18T02:50:49;2.00;99.90
29577;DHT22;16509;53.862;10.672;2022-11-18T02:53:18;2.20;99.90
29577;DHT22;16509;53.862;10.672;2022-11-18T02:55:45;1.80;99.90
29577;DHT22;16509;53.862;10.672;2022-11-18T02:58:14;1.90;99.90
29577;DHT22;16509;53.862;10.672;2022-11-18T03:00:41;1.40;99.90
29577;DHT22;16509;53.862;10.672;2022-11-18T03:03:27;1.60;99.90
29577;DHT22;16509;53.862;10.672;2022-11-18T03:06:26;1.60;99.90
29577;DHT22;16509;53.862;10.672;2022-11-18T03:09:16;1.70;99.90
29577;DHT22;16509;53.862;10.672;2022-11-18T03:17:04;1.90;99.90
29577;DHT22;16509;53.862;10.672;2022-11-18T03:22:38;1.90;99.90
29577;DHT22;16509;53.862;10.672;2022-11-18T03:25:09;1.80;99.90
29577;DHT22;16509;53.862;10.672;2022-11-18T03:27:50;1.60;99.90
29577;DHT22;16509;53.862;10.672;2022-11-18T03:30:19;1.70;99.90
29577;DHT22;16509;53.862;10.672;2022-11-18T03:32:56;1.60;99.90
29577;DHT22;16509;53.862;10.672;2022-11-18T03:35:26;1.70;99.90
29577;DHT22;16509;53.862;10.672;2022-11-18T03:38:06;1.70;99.90
29577;DHT22;16509;53.862;10.672;2022-11-18T03:40:35;1.70;99.90
29577;DHT22;16509;53.862;10.672;2022-11-18T03:43:11;1.70;99.90
29577;DHT22;16509;53.862;10.672;2022-11-18T03:45:50;1.70;99.90
29577;DHT22;16509;53.862;10.672;2022-11-18T03:48:18;1.60;99.90
29577;DHT22;16509;53.862;10.672;2022-11-18T03:51:15;2.30;99.90
29577;DHT22;16509;53.862;10.672;2022-11-18T03:53:54;1.70;99.90
29577;DHT22;16509;53.862;10.672;2022-11-18T03:56:28;1.70;99.90
29577;DHT22;16509;53.862;10.672;2022-11-18T03:59:09;1.70;99.90
29577;DHT22;16509;53.862;10.672;2022-11-18T04:04:47;1.80;99.90
29577;DHT22;16509;53.862;10.672;2022-11-18T04:10:18;1.80;99.90
29577;DHT22;16509;53.862;10.672;2022-11-18T04:12:55;1.80;99.90
29577;DHT22;16509;53.862;10.672;2022-11-18T04:15:23;1.80;99.90
29577;DHT22;16509;53.862;10.672;2022-11-18T04:17:49;1.80;99.90
29577;DHT22;16509;53.862;10.672;2022-11-18T04:20:18;2.00;99.90
29577;DHT22;16509;53.862;10.672;2022-11-18T04:22:44;1.70;99.90
29577;DHT22;16509;53.862;10.672;2022-11-18T04:25:11;1.60;99.90
29577;DHT22;16509;53.862;10.672;2022-11-18T04:27:37;1.60;99.90
29577;DHT22;16509;53.862;10.672;2022-11-18T04:30:04;1.60;99.90
29577;DHT22;16509;53.862;10.672;2022-11-18T04:32:30;1.50;99.90
29577;DHT22;16509;53.862;10.672;2022-11-18T04:34:57;1.50;99.90
29577;DHT22;16509;53.862;10.672;2022-11-18T04:37:24;1.50;99.90
29577;DHT22;16509;53.862;10.672;2022-11-18T04:39:52;1.40;99.90
29577;DHT22;16509;53.862;10.672;2022-11-18T04:42:19;1.40;99.90
29577;DHT22;16509;53.862;10.672;2022-11-18T04:44:44;1.40;99.90
29577;DHT22;16509;53.862;10.672;2022-11-18T04:47:10;1.40;99.90
29577;DHT22;16509;53.862;10.672;2022-11-18T04:49:36;1.40;99.90
29577;DHT22;16509;53.862;10.672;2022-11-18T04:52:05;1.40;99.90
29577;DHT22;16509;53.862;10.672;2022-11-18T04:54:31;1.00;99.90
29577;DHT22;16509;53.862;10.672;2022-11-18T04:56:56;0.90;99.90
29577;DHT22;16509;53.862;10.672;2022-11-18T04:59:24;1.20;99.90
29577;DHT22;16509;53.862;10.672;2022-11-18T05:01:51;0.90;99.90
29577;DHT22;16509;53.862;10.672;2022-11-18T05:04:20;1.00;99.90
29577;DHT22;16509;53.862;10.672;2022-11-18T05:06:47;1.20;99.90
29577;DHT22;16509;53.862;10.672;2022-11-18T05:09:13;1.10;99.90
29577;DHT22;16509;53.862;10.672;2022-11-18T05:11:38;1.00;99.90
29577;DHT22;16509;53.862;10.672;2022-11-18T05:14:27;2.50;99.90
29577;DHT22;16509;53.862;10.672;2022-11-18T05:16:53;1.30;99.90
29577;DHT22;16509;53.862;10.672;2022-11-18T05:19:19;1.90;99.90
29577;DHT22;16509;53.862;10.672;2022-11-18T05:21:45;1.50;99.90
29577;DHT22;16509;53.862;10.672;2022-11-18T05:24:10;1.40;99.90
29577;DHT22;16509;53.862;10.672;2022-11-18T05:26:36;1.10;99.90
29577;DHT22;16509;53.862;10.672;2022-11-18T05:29:02;1.30;99.90
29577;DHT22;16509;53.862;10.672;2022-11-18T05:31:28;1.30;99.90
29577;DHT22;16509;53.862;10.672;2022-11-18T05:33:55;1.70;99.90
29577;DHT22;16509;53.862;10.672;2022-11-18T05:36:21;1.50;99.90
29577;DHT22;16509;53.862;10.672;2022-11-18T05:38:46;1.70;99.90
29577;DHT22;16509;53.862;10.672;2022-11-18T05:41:13;1.50;99.90
29577;DHT22;16509;53.862;10.672;2022-11-18T05:43:58;3.00;99.90
29577;DHT22;16509;53.862;10.672;2022-11-18T05:46:24;0.70;99.90
29577;DHT22;16509;53.862;10.672;2022-11-18T05:48:50;1.00;99.90
29577;DHT22;16509;53.862;10.672;2022-11-18T05:51:15;1.10;99.90
29577;DHT22;16509;53.862;10.672;2022-11-18T05:53:41;1.10;99.90
29577;DHT22;16509;53.862;10.672;2022-11-18T05:58:43;1.20;99.90
29577;DHT22;16509;53.862;10.672;2022-11-18T06:01:09;1.10;99.90
29577;DHT22;16509;53.862;10.672;2022-11-18T06:03:39;1.10;99.90
29577;DHT22;16509;53.862;10.672;2022-11-18T06:06:06;1.30;99.90
29577;DHT22;16509;53.862;10.672;2022-11-18T06:08:44;1.10;99.90
29577;DHT22;16509;53.862;10.672;2022-11-18T06:11:14;1.20;99.90
29577;DHT22;16509;53.862;10.672;2022-11-18T06:13:46;1.00;99.90
29577;DHT22;16509;53.862;10.672;2022-11-18T06:16:19;1.10;99.90
29577;DHT22;16509;53.862;10.672;2022-11-18T06:18:46;1.30;99.90
29577;DHT22;16509;53.862;10.672;2022-11-18T06:21:12;1.10;99.90
29577;DHT22;16509;53.862;10.672;2022-11-18T06:23:39;1.00;99.90
29577;DHT22;16509;53.862;10.672;2022-11-18T06:26:06;1.10;99.90
29577;DHT22;16509;53.862;10.672;2022-11-18T06:28:32;0.90;99.90
29577;DHT22;16509;53.862;10.672;2022-11-18T06:30:58;0.80;99.90
29577;DHT22;16509;53.862;10.672;2022-11-18T06:33:24;1.70;99.90
29577;DHT22;16509;53.862;10.672;2022-11-18T06:35:49;1.10;99.90
29577;DHT22;16509;53.862;10.672;2022-11-18T06:38:15;1.20;99.90
29577;DHT22;16509;53.862;10.672;2022-11-18T06:40:40;1.10;99.90
29577;DHT22;16509;53.862;10.672;2022-11-18T06:43:10;1.20;99.90
29577;DHT22;16509;53.862;10.672;2022-11-18T06:45:58;0.90;99.90
29577;DHT22;16509;53.862;10.672;2022-11-18T06:48:43;1.40;99.90
29577;DHT22;16509;53.862;10.672;2022-11-18T06:51:09;1.10;99.90
29577;DHT22;16509;53.862;10.672;2022-11-18T06:53:36;1.20;99.90
29577;DHT22;16509;53.862;10.672;2022-11-18T06:56:13;1.10;99.90
29577;DHT22;16509;53.862;10.672;2022-11-18T06:58:39;1.00;99.90
29577;DHT22;16509;53.862;10.672;2022-11-18T07:01:09;1.10;99.90
29577;DHT22;16509;53.862;10.672;2022-11-18T07:03:36;1.00;99.90
29577;DHT22;16509;53.862;10.672;2022-11-18T07:06:05;1.00;99.90
29577;DHT22;16509;53.862;10.672;2022-11-18T07:08:30;1.90;99.90
29577;DHT22;16509;53.862;10.672;2022-11-18T07:10:56;1.10;99.90
29577;DHT22;16509;53.862;10.672;2022-11-18T07:13:21;1.20;99.90
29577;DHT22;16509;53.862;10.672;2022-11-18T07:15:47;1.00;99.90
29577;DHT22;16509;53.862;10.672;2022-11-18T07:18:13;1.00;99.90
29577;DHT22;16509;53.862;10.672;2022-11-18T07:20:38;1.10;99.90
29577;DHT22;16509;53.862;10.672;2022-11-18T07:23:04;3.50;99.90
29577;DHT22;16509;53.862;10.672;2022-11-18T07:25:29;1.10;99.90
29577;DHT22;16509;53.862;10.672;2022-11-18T07:27:57;1.40;99.90
29577;DHT22;16509;53.862;10.672;2022-11-18T07:30:23;1.50;99.90
29577;DHT22;16509;53.862;10.672;2022-11-18T07:32:48;1.30;99.90
29577;DHT22;16509;53.862;10.672;2022-11-18T07:35:14;1.40;99.90
29577;DHT22;16509;53.862;10.672;2022-11-18T07:37:41;1.30;99.90
29577;DHT22;16509;53.862;10.672;2022-11-18T07:40:07;1.40;99.90
29577;DHT22;16509;53.862;10.672;2022-11-18T07:42:33;1.50;99.90
29577;DHT22;16509;53.862;10.672;2022-11-18T07:45:10;1.50;99.90
29577;DHT22;16509;53.862;10.672;2022-11-18T07:47:36;1.50;99.90
29577;DHT22;16509;53.862;10.672;2022-11-18T07:50:03;1.50;99.90
29577;DHT22;16509;53.862;10.672;2022-11-18T07:52:29;1.60;99.90
29577;DHT22;16509;53.862;10.672;2022-11-18T07:54:55;1.60;99.90
29577;DHT22;16509;53.862;10.672;2022-11-18T07:57:20;1.50;99.90
29577;DHT22;16509;53.862;10.672;2022-11-18T07:59:46;1.50;99.90
29577;DHT22;16509;53.862;10.672;2022-11-18T08:02:12;0.60;99.90
29577;DHT22;16509;53.862;10.672;2022-11-18T08:04:38;1.90;99.90
29577;DHT22;16509;53.862;10.672;2022-11-18T08:07:03;0.70;99.90
29577;DHT22;16509;53.862;10.672;2022-11-18T08:09:29;0.60;99.90
29577;DHT22;16509;53.862;10.672;2022-11-18T08:11:54;1.20;99.90
29577;DHT22;16509;53.862;10.672;2022-11-18T08:14:20;1.20;99.90
29577;DHT22;16509;53.862;10.672;2022-11-18T08:16:48;0.90;99.90
29577;DHT22;16509;53.862;10.672;2022-11-18T08:19:14;1.00;99.90
29577;DHT22;16509;53.862;10.672;2022-11-18T08:21:40;1.10;99.90
29577;DHT22;16509;53.862;10.672;2022-11-18T08:24:08;0.90;99.90
29577;DHT22;16509;53.862;10.672;2022-11-18T08:26:33;1.10;99.90
29577;DHT22;16509;53.862;10.672;2022-11-18T08:28:59;0.90;99.90
29577;DHT22;16509;53.862;10.672;2022-11-18T08:31:26;1.00;99.90
29577;DHT22;16509;53.862;10.672;2022-11-18T08:34:01;1.00;99.90
29577;DHT22;16509;53.862;10.672;2022-11-18T08:36:29;1.00;99.90
29577;DHT22;16509;53.862;10.672;2022-11-18T08:38:56;1.10;99.90
29577;DHT22;16509;53.862;10.672;2022-11-18T08:41:37;0.70;99.90
29577;DHT22;16509;53.862;10.672;2022-11-18T08:44:03;1.10;99.90
29577;DHT22;16509;53.862;10.672;2022-11-18T08:46:29;1.10;99.90
29577;DHT22;16509;53.862;10.672;2022-11-18T08:48:56;1.20;99.90
29577;DHT22;16509;53.862;10.672;2022-11-18T08:51:22;1.00;99.90
29577;DHT22;16509;53.862;10.672;2022-11-18T08:53:48;1.00;99.90
29577;DHT22;16509;53.862;10.672;2022-11-18T08:56:19;1.00;99.90
29577;DHT22;16509;53.862;10.672;2022-11-18T08:58:46;1.00;99.90
29577;DHT22;16509;53.862;10.672;2022-11-18T09:01:12;1.00;99.90
29577;DHT22;16509;53.862;10.672;2022-11-18T09:03:37;1.10;99.90
29577;DHT22;16509;53.862;10.672;2022-11-18T09:08:36;1.10;99.90
29577;DHT22;16509;53.862;10.672;2022-11-18T09:11:09;1.20;99.90
29577;DHT22;16509;53.862;10.672;2022-11-18T09:13:35;1.20;99.90
29577;DHT22;16509;53.862;10.672;2022-11-18T09:16:02;1.20;99.90
29577;DHT22;16509;53.862;10.672;2022-11-18T09:18:28;1.20;99.90
29577;DHT22;16509;53.862;10.672;2022-11-18T09:20:59;1.30;99.90
29577;DHT22;16509;53.862;10.672;2022-11-18T09:23:25;1.40;99.90
29577;DHT22;16509;53.862;10.672;2022-11-18T09:26:17;1.50;99.90
29577;DHT22;16509;53.862;10.672;2022-11-18T09:28:45;1.60;99.90
29577;DHT22;16509;53.862;10.672;2022-11-18T09:31:17;1.60;99.90
29577;DHT22;16509;53.862;10.672;2022-11-18T09:33:43;1.60;99.90
29577;DHT22;16509;53.862;10.672;2022-11-18T09:36:15;1.60;99.90
29577;DHT22;16509;53.862;10.672;2022-11-18T09:38:40;1.60;99.90
29577;DHT22;16509;53.862;10.672;2022-11-18T09:43:48;1.70;99.90
29577;DHT22;16509;53.862;10.672;2022-11-18T09:49:14;1.80;99.90
29577;DHT22;16509;53.862;10.672;2022-11-18T09:51:46;1.90;99.90
29577;DHT22;16509;53.862;10.672;2022-11-18T09:56:45;2.00;99.90
29577;DHT22;16509;53.862;10.672;2022-11-18T09:59:12;2.10;99.90
29577;DHT22;16509;53.862;10.672;2022-11-18T10:01:40;2.20;99.90
29577;DHT22;16509;53.862;10.672;2022-11-18T10:04:14;2.20;99.90
29577;DHT22;16509;53.862;10.672;2022-11-18T10:06:40;2.20;99.90
29577;DHT22;16509;53.862;10.672;2022-11-18T10:09:39;2.30;99.90
29577;DHT22;16509;53.862;10.672;2022-11-18T10:12:42;2.40;99.90
29577;DHT22;16509;53.862;10.672;2022-11-18T10:15:46;2.50;99.90
29577;DHT22;16509;53.862;10.672;2022-11-18T10:18:38;2.50;99.90
29577;DHT22;16509;53.862;10.672;2022-11-18T10:23:57;2.60;99.90
29577;DHT22;16509;53.862;10.672;2022-11-18T10:26:33;2.60;99.90
29577;DHT22;16509;53.862;10.672;2022-11-18T10:28:59;2.70;99.90
29577;DHT22;16509;53.862;10.672;2022-11-18T10:31:24;2.70;99.90
29577;DHT22;16509;53.862;10.672;2022-11-18T10:33:58;2.70;99.90
29577;DHT22;16509;53.862;10.672;2022-11-18T10:36:27;2.90;99.90
29577;DHT22;16509;53.862;10.672;2022-11-18T10:39:19;2.90;99.90
29577;DHT22;16509;53.862;10.672;2022-11-18T10:41:55;3.00;99.90
29577;DHT22;16509;53.862;10.672;2022-11-18T10:44:38;3.10;99.90
29577;DHT22;16509;53.862;10.672;2022-11-18T10:47:28;3.40;99.90
29577;DHT22;16509;53.862;10.672;2022-11-18T10:49:57;3.20;99.90
29577;DHT22;16509;53.862;10.672;2022-11-18T10:52:23;3.30;99.90
29577;DHT22;16509;53.862;10.672;2022-11-18T10:55:08;3.30;99.90
29577;DHT22;16509;53.862;10.672;2022-11-18T10:57:40;3.50;99.90
29577;DHT22;16509;53.862;10.672;2022-11-18T11:00:38;3.60;99.90
29577;DHT22;16509;53.862;10.672;2022-11-18T11:06:20;3.70;99.90
29577;DHT22;16509;53.862;10.672;2022-11-18T11:08:50;3.70;99.90
29577;DHT22;16509;53.862;10.672;2022-11-18T11:13:53;3.80;99.90
29577;DHT22;16509;53.862;10.672;2022-11-18T11:16:20;3.90;99.90
29577;DHT22;16509;53.862;10.672;2022-11-18T11:18:51;3.80;99.90
29577;DHT22;16509;53.862;10.672;2022-11-18T11:21:20;3.90;99.90
29577;DHT22;16509;53.862;10.672;2022-11-18T11:23:49;3.80;99.90
29577;DHT22;16509;53.862;10.672;2022-11-18T11:30:22;3.90;99.90
29577;DHT22;16509;53.862;10.672;2022-11-18T11:35:15;4.10;99.90
29577;DHT22;16509;53.862;10.672;2022-11-18T11:37:56;4.10;99.90
29577;DHT22;16509;53.862;10.672;2022-11-18T11:45:55;4.20;99.90
29577;DHT22;16509;53.862;10.672;2022-11-18T11:51:20;4.20;99.90
29577;DHT22;16509;53.862;10.672;2022-11-18T11:56:44;4.20;99.90
29577;DHT22;16509;53.862;10.672;2022-11-18T12:05:00;4.30;99.90
29577;DHT22;16509;53.862;10.672;2022-11-18T12:07:36;4.40;99.90
29577;DHT22;16509;53.862;10.672;2022-11-18T12:15:42;4.30;99.90
29577;DHT22;16509;53.862;10.672;2022-11-18T12:18:38;4.30;99.90
29577;DHT22;16509;53.862;10.672;2022-11-18T12:21:04;4.30;99.90
29577;DHT22;16509;53.862;10.672;2022-11-18T12:23:31;5.70;99.90
29577;DHT22;16509;53.862;10.672;2022-11-18T12:26:05;4.30;99.90
29577;DHT22;16509;53.862;10.672;2022-11-18T12:28:39;4.30;99.90
29577;DHT22;16509;53.862;10.672;2022-11-18T12:36:27;4.30;99.90
29577;DHT22;16509;53.862;10.672;2022-11-18T12:38:54;4.30;99.90
29577;DHT22;16509;53.862;10.672;2022-11-18T12:44:23;6.30;99.90
29577;DHT22;16509;53.862;10.672;2022-11-18T12:46:52;4.30;99.90
29577;DHT22;16509;53.862;10.672;2022-11-18T12:51:56;4.30;99.90
29577;DHT22;16509;53.862;10.672;2022-11-18T12:57:03;4.30;99.90
29577;DHT22;16509;53.862;10.672;2022-11-18T12:59:36;4.30;99.90
29577;DHT22;16509;53.862;10.672;2022-11-18T13:04:39;4.40;99.90
29577;DHT22;16509;53.862;10.672;2022-11-18T13:07:09;4.80;99.90
29577;DHT22;16509;53.862;10.672;2022-11-18T13:09:55;4.70;99.90
29577;DHT22;16509;53.862;10.672;2022-11-18T13:12:25;4.40;99.90
29577;DHT22;16509;53.862;10.672;2022-11-18T13:14:51;4.90;99.90
29577;DHT22;16509;53.862;10.672;2022-11-18T13:17:37;4.30;99.90
29577;DHT22;16509;53.862;10.672;2022-11-18T13:20:34;4.30;99.90
29577;DHT22;16509;53.862;10.672;2022-11-18T13:26:01;4.30;99.90
29577;DHT22;16509;53.862;10.672;2022-11-18T13:34:23;6.40;99.90
29577;DHT22;16509;53.862;10.672;2022-11-18T13:36:51;4.30;99.90
29577;DHT22;16509;53.862;10.672;2022-11-18T13:39:30;4.30;99.90
29577;DHT22;16509;53.862;10.672;2022-11-18T13:44:38;4.20;99.90
29577;DHT22;16509;53.862;10.672;2022-11-18T13:52:50;4.20;99.90
29577;DHT22;16509;53.862;10.672;2022-11-18T13:55:21;4.20;99.90
29577;DHT22;16509;53.862;10.672;2022-11-18T13:57:51;4.20;99.90
29577;DHT22;16509;53.862;10.672;2022-11-18T14:00:25;5.20;99.90
29577;DHT22;16509;53.862;10.672;2022-11-18T14:05:56;4.20;99.90
29577;DHT22;16509;53.862;10.672;2022-11-18T14:08:36;4.20;99.90
29577;DHT22;16509;53.862;10.672;2022-11-18T14:11:03;4.10;99.90
29577;DHT22;16509;53.862;10.672;2022-11-18T14:13:33;4.10;99.90
29577;DHT22;16509;53.862;10.672;2022-11-18T14:18:44;4.00;99.90
29577;DHT22;16509;53.862;10.672;2022-11-18T14:21:11;4.00;99.90
29577;DHT22;16509;53.862;10.672;2022-11-18T14:23:41;4.00;99.90
29577;DHT22;16509;53.862;10.672;2022-11-18T14:26:07;3.90;99.90
29577;DHT22;16509;53.862;10.672;2022-11-18T14:28:34;4.40;99.90
29577;DHT22;16509;53.862;10.672;2022-11-18T14:33:41;3.80;99.90
29577;DHT22;16509;53.862;10.672;2022-11-18T14:36:27;3.60;99.90
29577;DHT22;16509;53.862;10.672;2022-11-18T14:38:53;3.60;99.90
29577;DHT22;16509;53.862;10.672;2022-11-18T14:41:20;3.60;99.90
29577;DHT22;16509;53.862;10.672;2022-11-18T14:44:06;4.30;99.90
29577;DHT22;16509;53.862;10.672;2022-11-18T14:46:33;3.50;99.90
29577;DHT22;16509;53.862;10.672;2022-11-18T14:49:02;3.40;99.90
29577;DHT22;16509;53.862;10.672;2022-11-18T14:51:28;3.40;99.90
29577;DHT22;16509;53.862;10.672;2022-11-18T14:53:53;3.40;99.90
29577;DHT22;16509;53.862;10.672;2022-11-18T14:56:29;3.30;99.90
29577;DHT22;16509;53.862;10.672;2022-11-18T14:58:55;3.30;99.90
29577;DHT22;16509;53.862;10.672;2022-11-18T15:01:22;3.30;99.90
29577;DHT22;16509;53.862;10.672;2022-11-18T15:03:49;3.90;99.90
29577;DHT22;16509;53.862;10.672;2022-11-18T15:06:17;3.50;99.90
29577;DHT22;16509;53.862;10.672;2022-11-18T15:08:45;3.30;99.90
29577;DHT22;16509;53.862;10.672;2022-11-18T15:11:11;3.20;99.90
29577;DHT22;16509;53.862;10.672;2022-11-18T15:13:37;4.00;99.90
29577;DHT22;16509;53.862;10.672;2022-11-18T15:16:16;3.10;99.90
29577;DHT22;16509;53.862;10.672;2022-11-18T15:18:44;3.00;99.90
29577;DHT22;16509;53.862;10.672;2022-11-18T15:21:11;2.90;99.90
29577;DHT22;16509;53.862;10.672;2022-11-18T15:23:36;3.00;99.90
29577;DHT22;16509;53.862;10.672;2022-11-18T15:26:21;3.00;99.90
29577;DHT22;16509;53.862;10.672;2022-11-18T15:28:48;3.00;99.90
29577;DHT22;16509;53.862;10.672;2022-11-18T15:31:15;3.10;99.90
29577;DHT22;16509;53.862;10.672;2022-11-18T15:33:43;3.10;99.90
29577;DHT22;16509;53.862;10.672;2022-11-18T15:36:14;3.10;99.90
29577;DHT22;16509;53.862;10.672;2022-11-18T15:38:41;4.70;99.90
29577;DHT22;16509;53.862;10.672;2022-11-18T15:41:14;3.10;99.90
29577;DHT22;16509;53.862;10.672;2022-11-18T15:43:40;3.10;99.90
29577;DHT22;16509;53.862;10.672;2022-11-18T15:46:05;3.30;99.90
29577;DHT22;16509;53.862;10.672;2022-11-18T15:48:31;3.10;99.90
29577;DHT22;16509;53.862;10.672;2022-11-18T15:50:56;3.00;99.90
29577;DHT22;16509;53.862;10.672;2022-11-18T15:53:22;3.00;99.90
29577;DHT22;16509;53.862;10.672;2022-11-18T15:55:47;4.50;99.90
29577;DHT22;16509;53.862;10.672;2022-11-18T15:58:13;3.00;99.90
29577;DHT22;16509;53.862;10.672;2022-11-18T16:00:39;2.90;99.90
29577;DHT22;16509;53.862;10.672;2022-11-18T16:03:04;2.70;99.90
29577;DHT22;16509;53.862;10.672;2022-11-18T16:05:30;2.70;99.90
29577;DHT22;16509;53.862;10.672;2022-11-18T16:07:55;2.70;99.90
29577;DHT22;16509;53.862;10.672;2022-11-18T16:10:21;2.70;99.90
29577;DHT22;16509;53.862;10.672;2022-11-18T16:13:05;2.60;99.90
29577;DHT22;16509;53.862;10.672;2022-11-18T16:15:33;2.60;99.90
29577;DHT22;16509;53.862;10.672;2022-11-18T16:18:08;2.60;99.90
29577;DHT22;16509;53.862;10.672;2022-11-18T16:20:34;2.50;99.90
29577;DHT22;16509;53.862;10.672;2022-11-18T16:23:00;2.50;99.90
29577;DHT22;16509;53.862;10.672;2022-11-18T16:25:25;2.40;99.90
29577;DHT22;16509;53.862;10.672;2022-11-18T16:27:53;2.40;99.90
29577;DHT22;16509;53.862;10.672;2022-11-18T16:30:18;2.30;99.90
29577;DHT22;16509;53.862;10.672;2022-11-18T16:33:02;2.30;99.90
29577;DHT22;16509;53.862;10.672;2022-11-18T16:35:28;2.20;99.90
29577;DHT22;16509;53.862;10.672;2022-11-18T16:37:54;2.20;99.90
29577;DHT22;16509;53.862;10.672;2022-11-18T16:40:19;2.10;99.90
29577;DHT22;16509;53.862;10.672;2022-11-18T16:42:49;2.10;99.90
29577;DHT22;16509;53.862;10.672;2022-11-18T16:45:15;2.00;99.90
29577;DHT22;16509;53.862;10.672;2022-11-18T16:47:41;2.30;99.90
29577;DHT22;16509;53.862;10.672;2022-11-18T16:50:07;2.00;99.90
29577;DHT22;16509;53.862;10.672;2022-11-18T16:52:33;2.00;99.90
29577;DHT22;16509;53.862;10.672;2022-11-18T16:54:59;1.90;99.90
29577;DHT22;16509;53.862;10.672;2022-11-18T16:57:24;1.90;99.90
29577;DHT22;16509;53.862;10.672;2022-11-18T16:59:50;1.80;99.90
29577;DHT22;16509;53.862;10.672;2022-11-18T17:02:16;2.80;99.90
29577;DHT22;16509;53.862;10.672;2022-11-18T17:04:44;1.90;99.90
29577;DHT22;16509;53.862;10.672;2022-11-18T17:07:10;1.90;99.90
29577;DHT22;16509;53.862;10.672;2022-11-18T17:09:36;1.90;99.90
29577;DHT22;16509;53.862;10.672;2022-11-18T17:12:01;2.50;99.90
29577;DHT22;16509;53.862;10.672;2022-11-18T17:14:28;1.90;99.90
29577;DHT22;16509;53.862;10.672;2022-11-18T17:16:54;1.90;99.90
29577;DHT22;16509;53.862;10.672;2022-11-18T17:19:21;1.90;99.90
29577;DHT22;16509;53.862;10.672;2022-11-18T17:21:48;1.90;99.90
29577;DHT22;16509;53.862;10.672;2022-11-18T17:24:18;1.90;99.90
29577;DHT22;16509;53.862;10.672;2022-11-18T17:26:44;1.90;99.90
29577;DHT22;16509;53.862;10.672;2022-11-18T17:29:11;1.80;99.90
29577;DHT22;16509;53.862;10.672;2022-11-18T17:31:37;1.80;99.90
29577;DHT22;16509;53.862;10.672;2022-11-18T17:34:04;1.70;99.90
29577;DHT22;16509;53.862;10.672;2022-11-18T17:36:29;1.80;99.90
29577;DHT22;16509;53.862;10.672;2022-11-18T17:38:57;1.70;99.90
29577;DHT22;16509;53.862;10.672;2022-11-18T17:41:24;1.60;99.90
29577;DHT22;16509;53.862;10.672;2022-11-18T17:44:11;1.60;99.90
29577;DHT22;16509;53.862;10.672;2022-11-18T17:46:37;1.50;99.90
29577;DHT22;16509;53.862;10.672;2022-11-18T17:49:05;1.50;99.90
29577;DHT22;16509;53.862;10.672;2022-11-18T17:51:31;1.40;99.90
29577;DHT22;16509;53.862;10.672;2022-11-18T17:53:57;1.30;99.90